sensor_id;sensor_type;location;lat;lon;timestamp;P1;durP1;ratioP1;P2;durP2;ratioP2
17488;SDS011;8861;52.644;4.734;2022-07-18T00:01:54;7.67;;;6.10;;
17488;SDS011;8861;52.644;4.734;2022-07-18T00:04:22;8.13;;;6.40;;
17488;SDS011;8861;52.644;4.734;2022-07-18T00:06:49;7.50;;;6.30;;
17488;SDS011;8861;52.644;4.734;2022-07-18T00:09:17;8.30;;;6.53;;
17488;SDS011;8861;52.644;4.734;2022-07-18T00:11:46;8.00;;;6.33;;
17488;SDS011;8861;52.644;4.734;2022-07-18T00:14:12;9.20;;;6.80;;
17488;SDS011;8861;52.644;4.734;2022-07-18T00:16:39;8.13;;;6.20;;
17488;SDS011;8861;52.644;4.734;2022-07-18T00:19:06;8.60;;;6.67;;
17488;SDS011;8861;52.644;4.734;2022-07-18T00:21:33;8.63;;;6.67;;
17488;SDS011;8861;52.644;4.734;2022-07-18T00:24:00;7.47;;;6.20;;
17488;SDS011;8861;52.644;4.734;2022-07-18T00:26:28;8.20;;;6.23;;
17488;SDS011;8861;52.644;4.734;2022-07-18T00:28:55;8.60;;;6.30;;
17488;SDS011;8861;52.644;4.734;2022-07-18T00:31:22;8.53;;;6.80;;
17488;SDS011;8861;52.644;4.734;2022-07-18T00:33:49;7.90;;;6.50;;
17488;SDS011;8861;52.644;4.734;2022-07-18T00:36:16;8.37;;;6.20;;
17488;SDS011;8861;52.644;4.734;2022-07-18T00:38:43;7.53;;;6.10;;
17488;SDS011;8861;52.644;4.734;2022-07-18T00:41:13;7.67;;;6.20;;
17488;SDS011;8861;52.644;4.734;2022-07-18T00:43:41;7.83;;;6.43;;
17488;SDS011;8861;52.644;4.734;2022-07-18T00:46:09;8.13;;;6.53;;
17488;SDS011;8861;52.644;4.734;2022-07-18T00:48:36;8.77;;;6.50;;
17488;SDS011;8861;52.644;4.734;2022-07-18T00:51:03;8.37;;;6.80;;
17488;SDS011;8861;52.644;4.734;2022-07-18T00:53:30;7.57;;;5.90;;
17488;SDS011;8861;52.644;4.734;2022-07-18T00:55:57;7.77;;;6.30;;
17488;SDS011;8861;52.644;4.734;2022-07-18T00:58:27;9.07;;;6.90;;
17488;SDS011;8861;52.644;4.734;2022-07-18T01:00:57;7.83;;;6.37;;
17488;SDS011;8861;52.644;4.734;2022-07-18T01:03:41;8.00;;;6.20;;
17488;SDS011;8861;52.644;4.734;2022-07-18T01:06:08;7.53;;;6.30;;
17488;SDS011;8861;52.644;4.734;2022-07-18T01:08:35;7.67;;;6.27;;
17488;SDS011;8861;52.644;4.734;2022-07-18T01:11:03;8.37;;;6.43;;
17488;SDS011;8861;52.644;4.734;2022-07-18T01:13:30;8.10;;;6.60;;
17488;SDS011;8861;52.644;4.734;2022-07-18T01:15:58;8.17;;;6.80;;
17488;SDS011;8861;52.644;4.734;2022-07-18T01:18:25;8.40;;;6.67;;
17488;SDS011;8861;52.644;4.734;2022-07-18T01:20:53;8.70;;;6.37;;
17488;SDS011;8861;52.644;4.734;2022-07-18T01:23:20;7.90;;;6.13;;
17488;SDS011;8861;52.644;4.734;2022-07-18T01:25:47;7.67;;;6.10;;
17488;SDS011;8861;52.644;4.734;2022-07-18T01:28:14;8.67;;;6.40;;
17488;SDS011;8861;52.644;4.734;2022-07-18T01:30:41;8.33;;;6.47;;
17488;SDS011;8861;52.644;4.734;2022-07-18T01:33:08;8.57;;;6.53;;
17488;SDS011;8861;52.644;4.734;2022-07-18T01:35:35;10.20;;;6.97;;
17488;SDS011;8861;52.644;4.734;2022-07-18T01:38:03;8.60;;;6.53;;
17488;SDS011;8861;52.644;4.734;2022-07-18T01:40:31;8.70;;;6.60;;
17488;SDS011;8861;52.644;4.734;2022-07-18T01:42:58;7.57;;;6.10;;
17488;SDS011;8861;52.644;4.734;2022-07-18T01:45:25;8.37;;;6.40;;
17488;SDS011;8861;52.644;4.734;2022-07-18T01:47:52;8.40;;;6.10;;
17488;SDS011;8861;52.644;4.734;2022-07-18T01:50:19;8.77;;;6.60;;
17488;SDS011;8861;52.644;4.734;2022-07-18T01:52:46;9.43;;;7.00;;
17488;SDS011;8861;52.644;4.734;2022-07-18T01:55:15;8.63;;;6.53;;
17488;SDS011;8861;52.644;4.734;2022-07-18T01:57:41;9.30;;;6.50;;
17488;SDS011;8861;52.644;4.734;2022-07-18T02:00:09;8.77;;;6.47;;
17488;SDS011;8861;52.644;4.734;2022-07-18T02:02:37;7.73;;;5.90;;
17488;SDS011;8861;52.644;4.734;2022-07-18T02:05:04;10.33;;;6.40;;
17488;SDS011;8861;52.644;4.734;2022-07-18T02:07:32;8.43;;;6.07;;
17488;SDS011;8861;52.644;4.734;2022-07-18T02:10:03;7.60;;;6.03;;
17488;SDS011;8861;52.644;4.734;2022-07-18T02:12:32;9.07;;;6.40;;
17488;SDS011;8861;52.644;4.734;2022-07-18T02:14:59;8.30;;;6.13;;
17488;SDS011;8861;52.644;4.734;2022-07-18T02:17:26;8.87;;;6.43;;
17488;SDS011;8861;52.644;4.734;2022-07-18T02:19:53;7.90;;;6.07;;
17488;SDS011;8861;52.644;4.734;2022-07-18T02:22:20;7.90;;;6.07;;
17488;SDS011;8861;52.644;4.734;2022-07-18T02:24:47;7.03;;;5.40;;
17488;SDS011;8861;52.644;4.734;2022-07-18T02:27:13;7.10;;;5.40;;
17488;SDS011;8861;52.644;4.734;2022-07-18T02:29:41;8.00;;;5.90;;
17488;SDS011;8861;52.644;4.734;2022-07-18T02:32:08;7.53;;;5.70;;
17488;SDS011;8861;52.644;4.734;2022-07-18T02:34:35;7.10;;;5.53;;
17488;SDS011;8861;52.644;4.734;2022-07-18T02:37:03;7.77;;;5.53;;
17488;SDS011;8861;52.644;4.734;2022-07-18T02:39:30;7.73;;;6.03;;
17488;SDS011;8861;52.644;4.734;2022-07-18T02:41:57;8.20;;;6.20;;
17488;SDS011;8861;52.644;4.734;2022-07-18T02:44:24;7.97;;;5.80;;
17488;SDS011;8861;52.644;4.734;2022-07-18T02:46:52;7.87;;;5.73;;
17488;SDS011;8861;52.644;4.734;2022-07-18T02:49:19;7.57;;;5.70;;
17488;SDS011;8861;52.644;4.734;2022-07-18T02:51:57;7.53;;;5.80;;
17488;SDS011;8861;52.644;4.734;2022-07-18T02:54:26;6.90;;;5.40;;
17488;SDS011;8861;52.644;4.734;2022-07-18T02:56:53;8.80;;;5.87;;
17488;SDS011;8861;52.644;4.734;2022-07-18T02:59:21;7.30;;;5.63;;
17488;SDS011;8861;52.644;4.734;2022-07-18T03:01:48;7.53;;;5.20;;
17488;SDS011;8861;52.644;4.734;2022-07-18T03:04:16;7.67;;;5.50;;
17488;SDS011;8861;52.644;4.734;2022-07-18T03:06:44;6.70;;;5.50;;
17488;SDS011;8861;52.644;4.734;2022-07-18T03:09:11;7.40;;;5.40;;
17488;SDS011;8861;52.644;4.734;2022-07-18T03:11:38;7.40;;;5.50;;
17488;SDS011;8861;52.644;4.734;2022-07-18T03:14:05;6.50;;;4.90;;
17488;SDS011;8861;52.644;4.734;2022-07-18T03:16:32;7.67;;;5.50;;
17488;SDS011;8861;52.644;4.734;2022-07-18T03:18:59;7.47;;;5.20;;
17488;SDS011;8861;52.644;4.734;2022-07-18T03:21:28;7.63;;;5.57;;
17488;SDS011;8861;52.644;4.734;2022-07-18T03:23:55;6.97;;;5.10;;
17488;SDS011;8861;52.644;4.734;2022-07-18T03:26:22;6.53;;;5.00;;
17488;SDS011;8861;52.644;4.734;2022-07-18T03:28:49;8.17;;;5.13;;
17488;SDS011;8861;52.644;4.734;2022-07-18T03:31:16;6.17;;;4.57;;
17488;SDS011;8861;52.644;4.734;2022-07-18T03:33:43;6.97;;;5.20;;
17488;SDS011;8861;52.644;4.734;2022-07-18T03:36:10;7.30;;;5.30;;
17488;SDS011;8861;52.644;4.734;2022-07-18T03:38:38;7.70;;;5.03;;
17488;SDS011;8861;52.644;4.734;2022-07-18T03:41:08;8.33;;;5.10;;
17488;SDS011;8861;52.644;4.734;2022-07-18T03:43:36;6.23;;;4.60;;
17488;SDS011;8861;52.644;4.734;2022-07-18T03:46:03;5.63;;;4.70;;
17488;SDS011;8861;52.644;4.734;2022-07-18T03:48:30;5.70;;;4.50;;
17488;SDS011;8861;52.644;4.734;2022-07-18T03:50:57;6.37;;;4.63;;
17488;SDS011;8861;52.644;4.734;2022-07-18T03:53:24;6.07;;;4.53;;
17488;SDS011;8861;52.644;4.734;2022-07-18T03:55:53;5.53;;;4.50;;
17488;SDS011;8861;52.644;4.734;2022-07-18T03:58:20;6.50;;;4.50;;
17488;SDS011;8861;52.644;4.734;2022-07-18T04:00:47;5.53;;;4.40;;
17488;SDS011;8861;52.644;4.734;2022-07-18T04:03:13;5.73;;;4.60;;
17488;SDS011;8861;52.644;4.734;2022-07-18T04:05:40;5.77;;;4.27;;
17488;SDS011;8861;52.644;4.734;2022-07-18T04:08:07;5.90;;;4.27;;
17488;SDS011;8861;52.644;4.734;2022-07-18T04:10:34;6.77;;;4.43;;
17488;SDS011;8861;52.644;4.734;2022-07-18T04:13:06;6.27;;;4.93;;
17488;SDS011;8861;52.644;4.734;2022-07-18T04:15:34;6.50;;;4.80;;
17488;SDS011;8861;52.644;4.734;2022-07-18T04:18:03;5.30;;;4.30;;
17488;SDS011;8861;52.644;4.734;2022-07-18T04:20:30;6.80;;;4.47;;
17488;SDS011;8861;52.644;4.734;2022-07-18T04:22:58;5.90;;;4.50;;
17488;SDS011;8861;52.644;4.734;2022-07-18T04:25:27;6.57;;;4.50;;
17488;SDS011;8861;52.644;4.734;2022-07-18T04:27:55;5.90;;;4.80;;
17488;SDS011;8861;52.644;4.734;2022-07-18T04:30:24;6.80;;;4.30;;
17488;SDS011;8861;52.644;4.734;2022-07-18T04:32:52;6.03;;;4.67;;
17488;SDS011;8861;52.644;4.734;2022-07-18T04:35:19;5.70;;;4.43;;
17488;SDS011;8861;52.644;4.734;2022-07-18T04:37:46;5.47;;;4.40;;
17488;SDS011;8861;52.644;4.734;2022-07-18T04:40:13;6.77;;;4.70;;
17488;SDS011;8861;52.644;4.734;2022-07-18T04:42:41;5.97;;;4.80;;
17488;SDS011;8861;52.644;4.734;2022-07-18T04:45:09;5.87;;;4.60;;
17488;SDS011;8861;52.644;4.734;2022-07-18T04:47:38;6.63;;;4.80;;
17488;SDS011;8861;52.644;4.734;2022-07-18T04:50:05;6.00;;;4.53;;
17488;SDS011;8861;52.644;4.734;2022-07-18T04:52:37;7.27;;;4.70;;
17488;SDS011;8861;52.644;4.734;2022-07-18T04:55:05;6.67;;;4.63;;
17488;SDS011;8861;52.644;4.734;2022-07-18T04:57:33;6.33;;;4.60;;
17488;SDS011;8861;52.644;4.734;2022-07-18T05:00:00;6.10;;;4.60;;
17488;SDS011;8861;52.644;4.734;2022-07-18T05:02:28;6.43;;;4.60;;
17488;SDS011;8861;52.644;4.734;2022-07-18T05:04:56;6.17;;;4.37;;
17488;SDS011;8861;52.644;4.734;2022-07-18T05:07:23;6.27;;;4.63;;
17488;SDS011;8861;52.644;4.734;2022-07-18T05:09:50;5.10;;;4.33;;
17488;SDS011;8861;52.644;4.734;2022-07-18T05:12:17;5.23;;;4.33;;
17488;SDS011;8861;52.644;4.734;2022-07-18T05:14:48;5.20;;;4.10;;
17488;SDS011;8861;52.644;4.734;2022-07-18T05:17:15;6.93;;;4.53;;
17488;SDS011;8861;52.644;4.734;2022-07-18T05:19:42;5.37;;;4.13;;
17488;SDS011;8861;52.644;4.734;2022-07-18T05:22:10;4.60;;;3.90;;
17488;SDS011;8861;52.644;4.734;2022-07-18T05:24:37;5.73;;;4.00;;
17488;SDS011;8861;52.644;4.734;2022-07-18T05:27:04;7.70;;;4.27;;
17488;SDS011;8861;52.644;4.734;2022-07-18T05:29:31;4.97;;;4.00;;
17488;SDS011;8861;52.644;4.734;2022-07-18T05:31:58;4.57;;;3.83;;
17488;SDS011;8861;52.644;4.734;2022-07-18T05:34:25;4.53;;;3.90;;
17488;SDS011;8861;52.644;4.734;2022-07-18T05:36:52;7.90;;;4.80;;
17488;SDS011;8861;52.644;4.734;2022-07-18T05:39:21;6.43;;;4.37;;
17488;SDS011;8861;52.644;4.734;2022-07-18T05:41:48;5.83;;;4.00;;
17488;SDS011;8861;52.644;4.734;2022-07-18T05:44:15;6.43;;;4.00;;
17488;SDS011;8861;52.644;4.734;2022-07-18T05:46:44;4.73;;;3.80;;
17488;SDS011;8861;52.644;4.734;2022-07-18T05:49:11;5.33;;;3.63;;
17488;SDS011;8861;52.644;4.734;2022-07-18T05:51:38;3.93;;;3.30;;
17488;SDS011;8861;52.644;4.734;2022-07-18T05:54:05;4.70;;;3.60;;
17488;SDS011;8861;52.644;4.734;2022-07-18T05:56:33;4.40;;;3.40;;
17488;SDS011;8861;52.644;4.734;2022-07-18T05:59:00;4.77;;;3.30;;
17488;SDS011;8861;52.644;4.734;2022-07-18T06:01:27;4.37;;;3.43;;
17488;SDS011;8861;52.644;4.734;2022-07-18T06:03:54;5.93;;;3.20;;
17488;SDS011;8861;52.644;4.734;2022-07-18T06:06:21;4.00;;;3.07;;
17488;SDS011;8861;52.644;4.734;2022-07-18T06:08:48;4.87;;;3.40;;
17488;SDS011;8861;52.644;4.734;2022-07-18T06:11:15;3.93;;;2.87;;
17488;SDS011;8861;52.644;4.734;2022-07-18T06:13:43;4.30;;;3.30;;
17488;SDS011;8861;52.644;4.734;2022-07-18T06:16:10;3.47;;;3.00;;
17488;SDS011;8861;52.644;4.734;2022-07-18T06:18:37;7.57;;;4.57;;
17488;SDS011;8861;52.644;4.734;2022-07-18T06:21:04;7.67;;;4.50;;
17488;SDS011;8861;52.644;4.734;2022-07-18T06:23:31;7.00;;;4.40;;
17488;SDS011;8861;52.644;4.734;2022-07-18T06:26:00;7.60;;;4.23;;
17488;SDS011;8861;52.644;4.734;2022-07-18T06:28:28;5.57;;;4.03;;
17488;SDS011;8861;52.644;4.734;2022-07-18T06:30:56;5.73;;;4.00;;
17488;SDS011;8861;52.644;4.734;2022-07-18T06:33:23;7.10;;;4.23;;
17488;SDS011;8861;52.644;4.734;2022-07-18T06:35:50;9.23;;;4.80;;
17488;SDS011;8861;52.644;4.734;2022-07-18T06:38:17;8.27;;;4.40;;
17488;SDS011;8861;52.644;4.734;2022-07-18T06:40:44;7.40;;;5.10;;
17488;SDS011;8861;52.644;4.734;2022-07-18T06:43:11;8.43;;;4.50;;
17488;SDS011;8861;52.644;4.734;2022-07-18T06:45:38;8.93;;;4.47;;
17488;SDS011;8861;52.644;4.734;2022-07-18T06:48:07;6.70;;;4.43;;
17488;SDS011;8861;52.644;4.734;2022-07-18T06:50:34;8.77;;;4.23;;
17488;SDS011;8861;52.644;4.734;2022-07-18T06:53:01;8.27;;;4.50;;
17488;SDS011;8861;52.644;4.734;2022-07-18T06:55:28;5.97;;;4.03;;
17488;SDS011;8861;52.644;4.734;2022-07-18T06:57:55;5.53;;;3.83;;
17488;SDS011;8861;52.644;4.734;2022-07-18T07:00:22;7.80;;;4.50;;
17488;SDS011;8861;52.644;4.734;2022-07-18T07:02:49;7.77;;;4.20;;
17488;SDS011;8861;52.644;4.734;2022-07-18T07:05:18;6.13;;;4.00;;
17488;SDS011;8861;52.644;4.734;2022-07-18T07:07:46;6.17;;;3.80;;
17488;SDS011;8861;52.644;4.734;2022-07-18T07:10:13;7.27;;;4.10;;
17488;SDS011;8861;52.644;4.734;2022-07-18T07:12:42;8.27;;;4.03;;
17488;SDS011;8861;52.644;4.734;2022-07-18T07:15:10;5.60;;;3.90;;
17488;SDS011;8861;52.644;4.734;2022-07-18T07:17:38;7.20;;;4.07;;
17488;SDS011;8861;52.644;4.734;2022-07-18T07:20:05;6.30;;;3.90;;
17488;SDS011;8861;52.644;4.734;2022-07-18T07:22:41;3.97;;;3.10;;
17488;SDS011;8861;52.644;4.734;2022-07-18T07:25:09;4.93;;;3.30;;
17488;SDS011;8861;52.644;4.734;2022-07-18T07:27:36;9.33;;;2.80;;
17488;SDS011;8861;52.644;4.734;2022-07-18T07:30:03;3.83;;;2.90;;
17488;SDS011;8861;52.644;4.734;2022-07-18T07:32:33;4.57;;;3.03;;
17488;SDS011;8861;52.644;4.734;2022-07-18T07:35:01;4.53;;;3.00;;
17488;SDS011;8861;52.644;4.734;2022-07-18T07:37:28;3.20;;;2.53;;
17488;SDS011;8861;52.644;4.734;2022-07-18T07:39:56;5.80;;;2.97;;
17488;SDS011;8861;52.644;4.734;2022-07-18T07:42:24;8.17;;;3.93;;
17488;SDS011;8861;52.644;4.734;2022-07-18T07:44:50;6.53;;;3.63;;
17488;SDS011;8861;52.644;4.734;2022-07-18T07:47:17;5.33;;;2.90;;
17488;SDS011;8861;52.644;4.734;2022-07-18T07:49:44;4.87;;;2.83;;
17488;SDS011;8861;52.644;4.734;2022-07-18T07:52:11;4.80;;;2.83;;
17488;SDS011;8861;52.644;4.734;2022-07-18T07:54:38;4.33;;;3.23;;
17488;SDS011;8861;52.644;4.734;2022-07-18T07:57:07;5.70;;;3.20;;
17488;SDS011;8861;52.644;4.734;2022-07-18T07:59:33;5.53;;;3.10;;
17488;SDS011;8861;52.644;4.734;2022-07-18T08:02:00;5.67;;;3.10;;
17488;SDS011;8861;52.644;4.734;2022-07-18T08:04:27;3.93;;;3.03;;
17488;SDS011;8861;52.644;4.734;2022-07-18T08:06:54;4.97;;;3.10;;
17488;SDS011;8861;52.644;4.734;2022-07-18T08:09:21;4.33;;;2.90;;
17488;SDS011;8861;52.644;4.734;2022-07-18T08:11:48;5.67;;;2.90;;
17488;SDS011;8861;52.644;4.734;2022-07-18T08:14:16;3.53;;;2.83;;
17488;SDS011;8861;52.644;4.734;2022-07-18T08:16:43;5.50;;;3.03;;
17488;SDS011;8861;52.644;4.734;2022-07-18T08:19:10;4.43;;;3.17;;
17488;SDS011;8861;52.644;4.734;2022-07-18T08:21:37;4.27;;;2.77;;
17488;SDS011;8861;52.644;4.734;2022-07-18T08:24:04;4.83;;;3.10;;
17488;SDS011;8861;52.644;4.734;2022-07-18T08:26:31;5.27;;;2.70;;
17488;SDS011;8861;52.644;4.734;2022-07-18T08:28:59;4.97;;;3.10;;
17488;SDS011;8861;52.644;4.734;2022-07-18T08:31:27;3.47;;;2.40;;
17488;SDS011;8861;52.644;4.734;2022-07-18T08:33:54;4.17;;;2.70;;
17488;SDS011;8861;52.644;4.734;2022-07-18T08:36:21;4.57;;;2.70;;
17488;SDS011;8861;52.644;4.734;2022-07-18T08:38:48;3.90;;;2.57;;
17488;SDS011;8861;52.644;4.734;2022-07-18T08:41:15;2.90;;;2.60;;
17488;SDS011;8861;52.644;4.734;2022-07-18T08:43:43;4.47;;;2.87;;
17488;SDS011;8861;52.644;4.734;2022-07-18T08:46:10;3.63;;;2.37;;
17488;SDS011;8861;52.644;4.734;2022-07-18T08:48:40;2.33;;;2.10;;
17488;SDS011;8861;52.644;4.734;2022-07-18T08:51:07;3.07;;;2.40;;
17488;SDS011;8861;52.644;4.734;2022-07-18T08:53:35;4.30;;;2.27;;
17488;SDS011;8861;52.644;4.734;2022-07-18T08:56:02;3.43;;;2.57;;
17488;SDS011;8861;52.644;4.734;2022-07-18T08:58:30;4.50;;;2.70;;
17488;SDS011;8861;52.644;4.734;2022-07-18T09:00:57;5.80;;;2.77;;
17488;SDS011;8861;52.644;4.734;2022-07-18T09:03:24;3.47;;;2.77;;
17488;SDS011;8861;52.644;4.734;2022-07-18T09:06:03;3.83;;;2.53;;
17488;SDS011;8861;52.644;4.734;2022-07-18T09:08:31;3.97;;;2.70;;
17488;SDS011;8861;52.644;4.734;2022-07-18T09:10:58;3.27;;;2.40;;
17488;SDS011;8861;52.644;4.734;2022-07-18T09:13:30;3.73;;;2.70;;
17488;SDS011;8861;52.644;4.734;2022-07-18T09:16:03;5.80;;;2.93;;
17488;SDS011;8861;52.644;4.734;2022-07-18T09:18:32;3.63;;;2.63;;
17488;SDS011;8861;52.644;4.734;2022-07-18T09:21:01;4.13;;;3.00;;
17488;SDS011;8861;52.644;4.734;2022-07-18T09:23:32;4.87;;;3.20;;
17488;SDS011;8861;52.644;4.734;2022-07-18T09:26:00;4.97;;;3.10;;
17488;SDS011;8861;52.644;4.734;2022-07-18T09:28:28;4.40;;;2.83;;
17488;SDS011;8861;52.644;4.734;2022-07-18T09:30:55;4.53;;;3.17;;
17488;SDS011;8861;52.644;4.734;2022-07-18T09:33:24;5.70;;;2.80;;
17488;SDS011;8861;52.644;4.734;2022-07-18T09:35:52;4.10;;;2.80;;
17488;SDS011;8861;52.644;4.734;2022-07-18T09:38:21;5.63;;;3.20;;
17488;SDS011;8861;52.644;4.734;2022-07-18T09:40:51;5.57;;;3.17;;
17488;SDS011;8861;52.644;4.734;2022-07-18T09:43:21;5.70;;;2.80;;
17488;SDS011;8861;52.644;4.734;2022-07-18T09:45:50;4.20;;;2.83;;
17488;SDS011;8861;52.644;4.734;2022-07-18T09:48:19;3.60;;;2.80;;
17488;SDS011;8861;52.644;4.734;2022-07-18T09:50:49;4.00;;;3.00;;
17488;SDS011;8861;52.644;4.734;2022-07-18T09:53:17;4.33;;;2.80;;
17488;SDS011;8861;52.644;4.734;2022-07-18T09:55:50;5.67;;;3.00;;
17488;SDS011;8861;52.644;4.734;2022-07-18T09:58:19;4.17;;;2.90;;
17488;SDS011;8861;52.644;4.734;2022-07-18T10:00:49;4.90;;;2.90;;
17488;SDS011;8861;52.644;4.734;2022-07-18T10:03:18;4.00;;;2.80;;
17488;SDS011;8861;52.644;4.734;2022-07-18T10:05:46;3.93;;;2.77;;
17488;SDS011;8861;52.644;4.734;2022-07-18T10:08:15;3.83;;;2.73;;
17488;SDS011;8861;52.644;4.734;2022-07-18T10:10:44;3.93;;;2.70;;
17488;SDS011;8861;52.644;4.734;2022-07-18T10:13:13;5.20;;;2.80;;
17488;SDS011;8861;52.644;4.734;2022-07-18T10:15:42;3.30;;;2.70;;
17488;SDS011;8861;52.644;4.734;2022-07-18T10:18:11;3.67;;;2.60;;
17488;SDS011;8861;52.644;4.734;2022-07-18T10:20:39;5.07;;;3.03;;
17488;SDS011;8861;52.644;4.734;2022-07-18T10:23:13;4.73;;;2.80;;
17488;SDS011;8861;52.644;4.734;2022-07-18T10:25:43;3.33;;;2.70;;
17488;SDS011;8861;52.644;4.734;2022-07-18T10:28:11;3.67;;;2.60;;
17488;SDS011;8861;52.644;4.734;2022-07-18T10:30:43;3.57;;;2.60;;
17488;SDS011;8861;52.644;4.734;2022-07-18T10:36:05;3.77;;;2.83;;
17488;SDS011;8861;52.644;4.734;2022-07-18T10:38:37;6.37;;;3.37;;
17488;SDS011;8861;52.644;4.734;2022-07-18T10:41:09;4.60;;;3.20;;
17488;SDS011;8861;52.644;4.734;2022-07-18T10:43:38;3.53;;;2.87;;
17488;SDS011;8861;52.644;4.734;2022-07-18T10:46:08;3.37;;;2.70;;
17488;SDS011;8861;52.644;4.734;2022-07-18T10:48:48;4.67;;;2.90;;
17488;SDS011;8861;52.644;4.734;2022-07-18T10:51:22;5.53;;;3.00;;
17488;SDS011;8861;52.644;4.734;2022-07-18T10:53:56;3.93;;;2.70;;
17488;SDS011;8861;52.644;4.734;2022-07-18T10:59:37;4.80;;;2.97;;
17488;SDS011;8861;52.644;4.734;2022-07-18T11:02:31;5.93;;;2.57;;
17488;SDS011;8861;52.644;4.734;2022-07-18T11:05:00;4.23;;;2.70;;
17488;SDS011;8861;52.644;4.734;2022-07-18T11:07:27;3.97;;;2.63;;
17488;SDS011;8861;52.644;4.734;2022-07-18T11:09:53;4.60;;;2.50;;
17488;SDS011;8861;52.644;4.734;2022-07-18T11:12:22;3.93;;;2.23;;
17488;SDS011;8861;52.644;4.734;2022-07-18T11:15:00;5.77;;;2.57;;
17488;SDS011;8861;52.644;4.734;2022-07-18T11:20:37;5.67;;;2.90;;
17488;SDS011;8861;52.644;4.734;2022-07-18T11:23:13;4.50;;;2.70;;
17488;SDS011;8861;52.644;4.734;2022-07-18T11:25:41;3.77;;;2.70;;
17488;SDS011;8861;52.644;4.734;2022-07-18T11:28:08;3.93;;;2.60;;
17488;SDS011;8861;52.644;4.734;2022-07-18T11:30:36;3.10;;;2.40;;
17488;SDS011;8861;52.644;4.734;2022-07-18T11:33:04;2.83;;;2.10;;
17488;SDS011;8861;52.644;4.734;2022-07-18T11:35:47;3.83;;;2.63;;
17488;SDS011;8861;52.644;4.734;2022-07-18T11:38:14;3.90;;;2.33;;
17488;SDS011;8861;52.644;4.734;2022-07-18T11:40:48;3.57;;;2.20;;
17488;SDS011;8861;52.644;4.734;2022-07-18T11:43:19;3.73;;;2.67;;
17488;SDS011;8861;52.644;4.734;2022-07-18T11:45:47;3.57;;;2.70;;
17488;SDS011;8861;52.644;4.734;2022-07-18T11:48:20;5.23;;;2.50;;
17488;SDS011;8861;52.644;4.734;2022-07-18T11:50:49;5.00;;;2.57;;
17488;SDS011;8861;52.644;4.734;2022-07-18T11:53:16;2.43;;;2.23;;
17488;SDS011;8861;52.644;4.734;2022-07-18T11:55:43;3.27;;;2.47;;
17488;SDS011;8861;52.644;4.734;2022-07-18T11:58:11;3.33;;;2.30;;
17488;SDS011;8861;52.644;4.734;2022-07-18T12:00:39;4.33;;;2.27;;
17488;SDS011;8861;52.644;4.734;2022-07-18T12:03:07;3.03;;;2.03;;
17488;SDS011;8861;52.644;4.734;2022-07-18T12:05:35;4.57;;;2.20;;
17488;SDS011;8861;52.644;4.734;2022-07-18T12:13:53;2.90;;;2.37;;
17488;SDS011;8861;52.644;4.734;2022-07-18T12:16:24;4.37;;;2.40;;
17488;SDS011;8861;52.644;4.734;2022-07-18T12:18:53;4.50;;;2.57;;
17488;SDS011;8861;52.644;4.734;2022-07-18T12:21:21;4.13;;;2.53;;
17488;SDS011;8861;52.644;4.734;2022-07-18T12:23:49;3.50;;;2.40;;
17488;SDS011;8861;52.644;4.734;2022-07-18T12:26:26;3.73;;;2.50;;
17488;SDS011;8861;52.644;4.734;2022-07-18T12:29:03;4.87;;;2.40;;
17488;SDS011;8861;52.644;4.734;2022-07-18T12:31:37;4.70;;;2.10;;
17488;SDS011;8861;52.644;4.734;2022-07-18T12:34:12;2.90;;;2.10;;
17488;SDS011;8861;52.644;4.734;2022-07-18T12:39:27;4.73;;;2.33;;
17488;SDS011;8861;52.644;4.734;2022-07-18T12:41:55;5.53;;;2.90;;
17488;SDS011;8861;52.644;4.734;2022-07-18T12:44:23;4.40;;;2.60;;
17488;SDS011;8861;52.644;4.734;2022-07-18T12:46:50;4.07;;;2.63;;
17488;SDS011;8861;52.644;4.734;2022-07-18T12:49:17;3.50;;;2.40;;
17488;SDS011;8861;52.644;4.734;2022-07-18T12:51:44;3.17;;;2.50;;
17488;SDS011;8861;52.644;4.734;2022-07-18T12:54:12;3.83;;;2.60;;
17488;SDS011;8861;52.644;4.734;2022-07-18T12:56:40;3.93;;;2.57;;
17488;SDS011;8861;52.644;4.734;2022-07-18T12:59:07;3.83;;;2.50;;
17488;SDS011;8861;52.644;4.734;2022-07-18T13:01:34;7.20;;;2.63;;
17488;SDS011;8861;52.644;4.734;2022-07-18T13:04:02;4.50;;;2.50;;
17488;SDS011;8861;52.644;4.734;2022-07-18T13:06:30;4.13;;;2.47;;
17488;SDS011;8861;52.644;4.734;2022-07-18T13:08:57;4.47;;;2.67;;
17488;SDS011;8861;52.644;4.734;2022-07-18T13:11:24;4.43;;;2.50;;
17488;SDS011;8861;52.644;4.734;2022-07-18T13:13:52;3.40;;;2.30;;
17488;SDS011;8861;52.644;4.734;2022-07-18T13:16:19;5.03;;;2.60;;
17488;SDS011;8861;52.644;4.734;2022-07-18T13:18:46;4.63;;;2.70;;
17488;SDS011;8861;52.644;4.734;2022-07-18T13:21:13;7.47;;;2.70;;
17488;SDS011;8861;52.644;4.734;2022-07-18T13:23:41;4.73;;;2.70;;
17488;SDS011;8861;52.644;4.734;2022-07-18T13:26:08;5.90;;;2.80;;
17488;SDS011;8861;52.644;4.734;2022-07-18T13:28:35;4.40;;;2.80;;
17488;SDS011;8861;52.644;4.734;2022-07-18T13:31:03;4.70;;;2.50;;
17488;SDS011;8861;52.644;4.734;2022-07-18T13:33:30;2.80;;;2.40;;
17488;SDS011;8861;52.644;4.734;2022-07-18T13:35:57;2.97;;;2.30;;
17488;SDS011;8861;52.644;4.734;2022-07-18T13:38:24;4.23;;;2.40;;
17488;SDS011;8861;52.644;4.734;2022-07-18T13:40:51;3.37;;;2.43;;
17488;SDS011;8861;52.644;4.734;2022-07-18T13:43:18;3.60;;;2.47;;
17488;SDS011;8861;52.644;4.734;2022-07-18T13:45:45;4.63;;;3.00;;
17488;SDS011;8861;52.644;4.734;2022-07-18T13:48:13;3.73;;;2.60;;
17488;SDS011;8861;52.644;4.734;2022-07-18T13:50:40;3.43;;;2.90;;
17488;SDS011;8861;52.644;4.734;2022-07-18T13:53:07;4.10;;;2.60;;
17488;SDS011;8861;52.644;4.734;2022-07-18T13:55:34;4.60;;;2.77;;
17488;SDS011;8861;52.644;4.734;2022-07-18T13:58:01;4.13;;;3.00;;
17488;SDS011;8861;52.644;4.734;2022-07-18T14:00:28;5.30;;;3.10;;
17488;SDS011;8861;52.644;4.734;2022-07-18T14:02:54;5.07;;;3.43;;
17488;SDS011;8861;52.644;4.734;2022-07-18T14:05:23;4.20;;;3.10;;
17488;SDS011;8861;52.644;4.734;2022-07-18T14:07:50;3.07;;;2.77;;
17488;SDS011;8861;52.644;4.734;2022-07-18T14:10:17;3.97;;;2.70;;
17488;SDS011;8861;52.644;4.734;2022-07-18T14:12:44;3.23;;;2.83;;
17488;SDS011;8861;52.644;4.734;2022-07-18T14:15:11;3.00;;;2.70;;
17488;SDS011;8861;52.644;4.734;2022-07-18T14:17:38;5.70;;;3.00;;
17488;SDS011;8861;52.644;4.734;2022-07-18T14:20:06;4.70;;;3.20;;
17488;SDS011;8861;52.644;4.734;2022-07-18T14:22:35;5.03;;;3.43;;
17488;SDS011;8861;52.644;4.734;2022-07-18T14:25:04;4.70;;;3.10;;
17488;SDS011;8861;52.644;4.734;2022-07-18T14:27:33;3.70;;;2.80;;
17488;SDS011;8861;52.644;4.734;2022-07-18T14:30:00;4.90;;;2.87;;
17488;SDS011;8861;52.644;4.734;2022-07-18T14:32:28;4.23;;;2.60;;
17488;SDS011;8861;52.644;4.734;2022-07-18T14:34:55;3.08;;;2.40;;
17488;SDS011;8861;52.644;4.734;2022-07-18T14:37:21;4.50;;;2.60;;
17488;SDS011;8861;52.644;4.734;2022-07-18T14:39:50;3.60;;;2.50;;
17488;SDS011;8861;52.644;4.734;2022-07-18T14:42:17;2.20;;;2.00;;
17488;SDS011;8861;52.644;4.734;2022-07-18T14:44:43;2.63;;;2.42;;
17488;SDS011;8861;52.644;4.734;2022-07-18T14:47:10;2.28;;;2.08;;
17488;SDS011;8861;52.644;4.734;2022-07-18T14:49:37;5.65;;;2.05;;
17488;SDS011;8861;52.644;4.734;2022-07-18T14:52:04;3.08;;;2.30;;
17488;SDS011;8861;52.644;4.734;2022-07-18T14:54:31;3.88;;;2.30;;
17488;SDS011;8861;52.644;4.734;2022-07-18T14:56:59;4.03;;;2.40;;
17488;SDS011;8861;52.644;4.734;2022-07-18T14:59:28;3.25;;;2.53;;
17488;SDS011;8861;52.644;4.734;2022-07-18T15:01:55;3.00;;;2.50;;
17488;SDS011;8861;52.644;4.734;2022-07-18T15:04:23;2.88;;;2.20;;
17488;SDS011;8861;52.644;4.734;2022-07-18T15:06:50;2.55;;;2.35;;
17488;SDS011;8861;52.644;4.734;2022-07-18T15:09:17;2.50;;;2.22;;
17488;SDS011;8861;52.644;4.734;2022-07-18T15:11:44;2.65;;;2.30;;
17488;SDS011;8861;52.644;4.734;2022-07-18T15:14:12;3.83;;;2.67;;
17488;SDS011;8861;52.644;4.734;2022-07-18T15:16:39;3.25;;;2.70;;
17488;SDS011;8861;52.644;4.734;2022-07-18T15:19:06;4.22;;;2.72;;
17488;SDS011;8861;52.644;4.734;2022-07-18T15:21:33;3.22;;;2.75;;
17488;SDS011;8861;52.644;4.734;2022-07-18T15:24:00;3.60;;;2.63;;